• Join FlightAware (Why Join?)
  • Login
  • US Flag 
Rudolph Flight #1: Arrived! 
07:33AM EST


 

Airport Tracker/Info


-or-


 

Live Flight TrackerFlight Track Log ✈ BOE5 ✈ 05-Jun-2013 ✈ KBFI

Flight Track Log - Related Links

Times and Time Zones

All times are in EDT time to prevent confusion due to time zone crossing. See the BOE5 flight status page for this flight to view local times or setup timezone preferences in your user account.

Time Position Orientation Groundspeed Altitude Reporting Facility
EDT Latitude Longitude Course Direction KTS MPH feet Rate Location/Type
01:25PM 47.5878 -122.3647 317° Northwest 218 251 2,100  Level Seattle Center
01:26PM 47.6369 -122.4333 317° Northwest 236 272 2,500 1,320 Climbing Seattle Center
01:27PM 47.5939 -122.5028 227° Southwest 239 275 4,900 2,580 Climbing Seattle Center
01:28PM 47.5403 -122.5594 216° Southwest 238 274 7,900 2,220 Climbing Seattle Center
01:29PM 47.4778 -122.6222 214° Southwest 255 293 9,500 2,340 Climbing Seattle Center
01:30PM 47.4136 -122.6867 214° Southwest 277 319 12,700 2,280 Climbing Seattle Center
01:31PM 47.3506 -122.7519 215° Southwest 278 320 14,200 1,080 Climbing Seattle Center
01:32PM 47.3003 -122.8381 229° Southwest 279 321 15,000 360 Climbing Seattle Center
01:33PM 47.2686 -122.9517 248° West 277 319 15,000  Level Seattle Center
01:34PM 47.2414 -123.0575 249° West 277 319 15,100 60 Climbing Seattle Center
01:35PM 47.2122 -123.1636 248° West 280 322 15,200  Climbing Seattle Center
01:36PM 47.1844 -123.2717 249° West 280 322 15,200  Level Seattle Center
01:37PM 47.1594 -123.3633 248° West 218 251 15,200  Level Seattle Center
01:38PM 47.1417 -123.4306 249° West 179 206 15,200  Level Seattle Center
01:39PM 47.1233 -123.4975 248° West 179 206 15,200  Level Seattle Center
01:40PM 47.1072 -123.5608 250° West 177 204 15,200  Level Seattle Center
01:41PM 47.0831 -123.6472 248° West 216 249 15,200  Level Seattle Center
01:42PM 47.0575 -123.7486 250° West 265 305 15,200  Level Seattle Center
01:43PM 47.0289 -123.8508 248° West 272 313 15,200  Level Seattle Center
01:44PM 47.0022 -123.9422 247° West 275 316 15,200  Level Seattle Center
01:45PM 46.9744 -124.0500 249° West 282 325 15,200  Level Seattle Center
01:46PM 46.9356 -124.1906 248° West 306 352 15,200  Level Seattle Center
01:47PM 46.9050 -124.3097 249° West 312 359 15,200  Level Seattle Center
01:48PM 46.8622 -124.4625 248° West 404 465 15,200  Level Seattle Center
01:49PM 46.8181 -124.6294 249° West 434 499 15,200  Level Seattle Center
01:51PM 46.7764 -124.7958 250° West 436 502 15,200  Level Seattle Center
01:52PM 46.7356 -124.9419 248° West 396 456 15,200 -60 Level Seattle Center
01:53PM 46.7017 -125.0619 248° West 330 380 15,100  Descending Seattle Center
01:54PM 46.6742 -125.1678 249° West 294 338 15,200  Climbing Seattle Center
01:55PM 46.6517 -125.2486 248° West 241 277 15,100 -360 Descending Seattle Center
01:56PM 46.6342 -125.3081 247° West 182 209 14,500 -600 Descending Seattle Center
01:58PM 46.5755 -125.5128 247° West  Level FlightAware Approximate
02:05PM 46.5167 -125.7167 248° West  Level FlightAware Approximate
02:06PM 46.4697 -125.6235 248° West  Level Estimated
02:07PM 46.5167 -125.7167 248° West  Level FlightAware Approximate
02:08PM 46.4697 -125.6235 248° West  Level Estimated
02:09PM 46.5167 -125.7167 248° West  Level FlightAware Approximate
02:10PM 46.4697 -125.6235 248° West  Level Estimated
02:11PM 46.5167 -125.7167 248° West  Level FlightAware Approximate
02:12PM 46.4697 -125.6235 248° West  Level Estimated
02:13PM 46.5167 -125.7167 248° West  Level FlightAware Approximate